Time;durP1;ratioP1;P1;durP2;ratioP2;P2;SDS_P1;SDS_P2;PMS_P1;PMS_P2;Temp;Humidity;BMP_temperature;BMP_pressure;BME280_temperature;BME280_humidity;BME280_pressure;Samples;Min_cycle;Max_cycle;Signal;HPM_P1;HPM_P2
2023/07/25 00:00:13;;;;;;;6.20;2.30;;;;;;;21.66;55.62;101549.91;5032359;28;20125;-45
2023/07/25 00:02:39;;;;;;;5.97;2.28;;;;;;;21.58;56.17;101545.75;5033070;28;20795;-45
2023/07/25 00:05:05;;;;;;;7.05;1.90;;;;;;;21.41;56.59;101536.91;5033295;28;20034;-45
2023/07/25 00:07:32;;;;;;;4.07;1.88;;;;;;;21.50;56.19;101536.19;5033123;28;20099;-44
2023/07/25 00:09:58;;;;;;;5.38;1.80;;;;;;;21.51;56.99;101540.53;5032819;28;20094;-44
2023/07/25 00:12:25;;;;;;;6.40;2.13;;;;;;;21.71;56.46;101531.69;5032617;28;20037;-44
2023/07/25 00:14:51;;;;;;;8.23;2.42;;;;;;;21.69;56.32;101528.38;5032605;28;20052;-45
2023/07/25 00:17:17;;;;;;;10.38;2.75;;;;;;;21.42;55.94;101535.84;5032784;28;20087;-44
2023/07/25 00:19:43;;;;;;;7.25;2.35;;;;;;;21.38;56.99;101529.25;5032814;28;20033;-44
2023/07/25 00:22:10;;;;;;;5.97;2.53;;;;;;;21.12;57.56;101528.22;5032528;28;20041;-45
2023/07/25 00:24:36;;;;;;;4.75;2.42;;;;;;;21.16;57.78;101519.28;5032266;28;20428;-45
2023/07/25 00:27:03;;;;;;;5.72;2.35;;;;;;;21.01;57.78;101525.41;5030816;28;20615;-44
2023/07/25 00:29:29;;;;;;;6.20;2.53;;;;;;;20.62;59.42;101505.72;5032686;28;20039;-43
2023/07/25 00:31:55;;;;;;;9.43;2.80;;;;;;;20.62;59.44;101530.22;5032718;28;20056;-49
2023/07/25 00:34:22;;;;;;;7.95;3.33;;;;;;;20.71;58.81;101525.97;5032260;28;20056;-45
2023/07/25 00:36:51;;;;;;;8.18;2.85;;;;;;;21.05;57.53;101512.13;5032126;28;20035;-46
2023/07/25 00:39:17;;;;;;;9.30;2.63;;;;;;;20.67;58.71;101522.09;5032456;28;20033;-44
2023/07/25 00:41:44;;;;;;;10.93;3.20;;;;;;;20.72;60.45;101526.78;5031893;28;20109;-43
2023/07/25 00:44:10;;;;;;;8.93;3.70;;;;;;;20.53;59.74;101523.59;5031700;28;20037;-45
2023/07/25 00:46:37;;;;;;;11.00;3.22;;;;;;;20.67;59.28;101513.94;5032475;28;20025;-45
2023/07/25 00:49:05;;;;;;;7.93;2.55;;;;;;;20.39;60.88;101514.16;5032190;28;20116;-43
2023/07/25 00:51:32;;;;;;;7.63;3.20;;;;;;;19.78;61.73;101508.81;5032154;28;20024;-44
2023/07/25 00:53:58;;;;;;;11.75;3.05;;;;;;;19.71;62.74;101503.56;5031900;28;20044;-45
2023/07/25 00:56:26;;;;;;;7.03;2.85;;;;;;;20.28;61.90;101508.59;5032081;28;20029;-46
2023/07/25 00:58:54;;;;;;;8.98;2.45;;;;;;;20.23;61.92;101516.69;5031163;28;20044;-46
2023/07/25 01:01:22;;;;;;;6.88;3.28;;;;;;;20.56;60.45;101507.59;5031894;28;20479;-47
2023/07/25 01:03:48;;;;;;;8.73;2.90;;;;;;;20.26;60.35;101494.44;5031879;28;20037;-45
2023/07/25 01:06:17;;;;;;;8.80;3.40;;;;;;;19.76;62.54;101486.47;5031809;28;20091;-45
2023/07/25 01:08:51;;;;;;;9.43;3.17;;;;;;;19.71;63.57;101500.84;5031839;28;20037;-47
2023/07/25 01:11:17;;;;;;;7.27;2.80;;;;;;;19.76;62.19;101484.56;5031758;28;20026;-47
2023/07/25 01:13:44;;;;;;;7.03;2.70;;;;;;;19.62;63.20;101479.78;5031542;28;20281;-45
2023/07/25 01:16:15;;;;;;;5.95;2.67;;;;;;;19.77;62.28;101488.97;5031745;28;20048;-44
2023/07/25 01:18:42;;;;;;;9.98;2.75;;;;;;;19.86;61.68;101480.38;5031881;28;20387;-45
2023/07/25 01:21:09;;;;;;;8.77;2.67;;;;;;;19.87;62.18;101480.09;5037117;28;20024;-43
2023/07/25 01:23:37;;;;;;;9.25;2.88;;;;;;;20.00;61.15;101487.06;5047145;28;20372;-44
2023/07/25 01:26:03;;;;;;;6.90;2.90;;;;;;;19.78;61.91;101490.59;5051962;28;20121;-44
2023/07/25 01:28:30;;;;;;;8.77;2.90;;;;;;;19.62;62.22;101493.38;5051609;28;20021;-43
2023/07/25 01:30:57;;;;;;;10.25;2.80;;;;;;;19.90;62.79;101492.38;5051180;28;20119;-45
2023/07/25 01:33:23;;;;;;;7.13;2.80;;;;;;;20.16;60.70;101483.47;5051304;28;20045;-45
2023/07/25 01:35:50;;;;;;;7.05;2.83;;;;;;;20.10;60.15;101473.63;5048269;28;20082;-43
2023/07/25 01:38:16;;;;;;;5.22;2.50;;;;;;;20.05;60.42;101473.56;5051795;28;20108;-44
2023/07/25 01:40:42;;;;;;;9.98;3.00;;;;;;;19.80;61.38;101475.94;5040802;28;20029;-44
2023/07/25 01:43:09;;;;;;;8.32;2.80;;;;;;;20.13;61.25;101483.16;5034003;28;20484;-44
2023/07/25 01:45:36;;;;;;;4.97;2.65;;;;;;;20.05;60.98;101470.84;5033683;28;20045;-46
2023/07/25 01:48:03;;;;;;;7.63;2.67;;;;;;;19.99;60.53;101474.56;5046364;28;20040;-43
2023/07/25 01:50:30;;;;;;;8.77;2.67;;;;;;;20.16;59.72;101471.78;5035066;28;20127;-43
2023/07/25 01:52:56;;;;;;;8.00;3.20;;;;;;;19.90;60.91;101473.34;5050319;28;20107;-44
2023/07/25 01:55:22;;;;;;;9.00;2.95;;;;;;;19.74;61.37;101469.63;5050632;28;20133;-42
2023/07/25 01:57:48;;;;;;;8.23;2.90;;;;;;;19.59;61.80;101470.22;5050071;28;20048;-45
2023/07/25 02:00:15;;;;;;;6.60;2.53;;;;;;;19.99;60.30;101478.09;5039454;28;20112;-42
2023/07/25 02:02:41;;;;;;;7.32;2.58;;;;;;;19.94;60.31;101475.31;5050393;28;20032;-44
2023/07/25 02:05:07;;;;;;;4.93;2.25;;;;;;;20.01;59.92;101469.69;5042507;28;20025;-44
2023/07/25 02:07:34;;;;;;;7.82;3.08;;;;;;;20.16;59.40;101466.34;5050898;28;20556;-44
2023/07/25 02:10:00;;;;;;;7.13;2.45;;;;;;;20.23;59.71;101465.06;5050638;28;20478;-45
2023/07/25 02:12:29;;;;;;;8.18;2.22;;;;;;;20.33;59.89;101475.22;5054720;28;20519;-44
2023/07/25 02:14:55;;;;;;;10.20;2.83;;;;;;;19.81;60.62;101464.00;5054197;28;20036;-48
2023/07/25 02:17:21;;;;;;;5.47;2.30;;;;;;;20.08;60.32;101469.50;5052812;28;20037;-44
2023/07/25 02:19:47;;;;;;;9.82;2.65;;;;;;;20.04;60.97;101466.44;5054595;28;20036;-45
2023/07/25 02:22:14;;;;;;;6.22;2.55;;;;;;;20.21;60.66;101459.06;5054178;28;20021;-50
2023/07/25 02:24:40;;;;;;;7.00;3.15;;;;;;;20.23;60.18;101453.38;5054584;28;20040;-46
2023/07/25 02:27:06;;;;;;;8.45;2.85;;;;;;;20.10;60.58;101456.47;5053959;28;20031;-45
2023/07/25 02:29:33;;;;;;;6.10;2.67;;;;;;;20.57;59.14;101459.44;5052977;28;20045;-46
2023/07/25 02:31:59;;;;;;;6.05;2.40;;;;;;;20.36;59.91;101463.00;5054513;28;20044;-52
2023/07/25 02:34:25;;;;;;;8.30;2.35;;;;;;;20.39;59.47;101460.59;5054278;28;20748;-52
2023/07/25 02:36:51;;;;;;;6.78;2.80;;;;;;;20.67;58.67;101456.00;5042743;28;20041;-45
2023/07/25 02:39:18;;;;;;;9.90;2.50;;;;;;;20.24;60.39;101453.09;5054468;28;20028;-45
2023/07/25 02:41:44;;;;;;;7.43;2.67;;;;;;;20.58;59.21;101458.38;5053008;28;20491;-47
2023/07/25 02:44:10;;;;;;;5.43;2.10;;;;;;;20.38;59.72;101456.25;5053766;28;20020;-53
2023/07/25 02:46:36;;;;;;;5.45;2.15;;;;;;;19.78;61.94;101459.91;5052171;28;20426;-56
2023/07/25 02:49:03;;;;;;;3.35;2.15;;;;;;;19.74;62.59;101458.75;5053245;28;20749;-55
2023/07/25 02:51:29;;;;;;;7.32;2.78;;;;;;;19.70;62.81;101463.84;5053112;28;20063;-54
2023/07/25 02:53:55;;;;;;;8.15;3.03;;;;;;;19.50;64.08;101458.16;5053634;28;20051;-49
2023/07/25 02:56:22;;;;;;;6.13;2.72;;;;;;;18.90;65.88;101465.09;5053098;28;20037;-46
2023/07/25 02:58:49;;;;;;;10.48;3.05;;;;;;;18.48;68.21;101461.88;5054185;28;20108;-47
2023/07/25 03:01:15;;;;;;;4.80;2.33;;;;;;;18.58;68.79;101464.78;5054081;28;20029;-45
2023/07/25 03:03:42;;;;;;;7.78;3.00;;;;;;;18.16;70.00;101465.09;5053614;28;20391;-45
2023/07/25 03:06:09;;;;;;;9.10;3.22;;;;;;;17.85;71.64;101465.53;5052439;28;20545;-47
2023/07/25 03:08:35;;;;;;;7.07;2.78;;;;;;;17.76;72.81;101461.53;5052286;28;20036;-52
2023/07/25 03:11:01;;;;;;;9.52;2.60;;;;;;;17.83;73.40;101459.56;5053661;28;20108;-47
2023/07/25 03:13:28;;;;;;;9.90;3.53;;;;;;;17.63;73.69;101465.31;5053487;28;20025;-46
2023/07/25 03:15:54;;;;;;;6.65;3.22;;;;;;;17.35;75.34;101466.03;5053776;28;20849;-47
2023/07/25 03:18:20;;;;;;;10.52;3.67;;;;;;;17.23;76.85;101470.63;5052445;28;20025;-50
2023/07/25 03:20:47;;;;;;;10.35;3.60;;;;;;;17.12;77.38;101462.28;5049656;28;20029;-48
2023/07/25 03:23:13;;;;;;;8.20;3.33;;;;;;;17.04;77.22;101468.00;5052698;28;20036;-50
2023/07/25 03:25:39;;;;;;;11.43;3.40;;;;;;;17.03;77.56;101460.97;5052260;28;20033;-47
2023/07/25 03:28:05;;;;;;;7.97;3.22;;;;;;;16.92;78.34;101463.66;5051758;28;20487;-46
2023/07/25 03:30:31;;;;;;;6.38;2.90;;;;;;;16.97;78.18;101478.13;5052656;28;20031;-46
2023/07/25 03:32:58;;;;;;;10.75;3.47;;;;;;;16.69;79.50;101486.03;5053004;28;20052;-47
2023/07/25 03:35:24;;;;;;;5.50;3.22;;;;;;;16.80;78.88;101477.16;5052073;28;20463;-47
2023/07/25 03:37:50;;;;;;;8.48;3.17;;;;;;;16.67;79.33;101486.25;5046090;23;20052;-48
2023/07/25 03:40:16;;;;;;;9.82;3.50;;;;;;;16.64;79.68;101484.81;5051264;28;20112;-47
2023/07/25 03:42:43;;;;;;;7.00;3.35;;;;;;;16.53;79.89;101484.78;5052634;28;20031;-52
2023/07/25 03:45:09;;;;;;;10.48;3.38;;;;;;;16.55;79.84;101483.53;5052984;28;20024;-50
2023/07/25 03:47:36;;;;;;;8.30;2.90;;;;;;;16.49;80.24;101486.28;5050638;28;20154;-48
2023/07/25 03:50:02;;;;;;;8.70;3.38;;;;;;;16.51;79.70;101479.63;5052948;28;20407;-46
2023/07/25 03:52:28;;;;;;;7.35;2.97;;;;;;;16.58;79.54;101484.94;5052718;28;20029;-46
2023/07/25 03:54:54;;;;;;;7.13;3.00;;;;;;;16.53;79.63;101487.50;5053086;28;20025;-46
2023/07/25 03:57:21;;;;;;;5.53;2.88;;;;;;;16.44;80.43;101489.72;5042791;28;20402;-46
2023/07/25 03:59:47;;;;;;;8.95;3.38;;;;;;;16.39;80.44;101481.47;5052814;28;20648;-45
2023/07/25 04:02:13;;;;;;;8.15;3.42;;;;;;;16.48;80.16;101485.47;5050408;28;20044;-47
2023/07/25 04:04:39;;;;;;;10.98;3.20;;;;;;;16.45;79.94;101483.25;5052566;28;20095;-47
2023/07/25 04:07:06;;;;;;;9.50;3.22;;;;;;;16.45;80.11;101491.34;5045344;28;20040;-46
2023/07/25 04:09:32;;;;;;;6.82;3.17;;;;;;;16.42;80.63;101497.19;5052292;28;20044;-48
2023/07/25 04:11:58;;;;;;;10.90;3.92;;;;;;;16.42;80.35;101486.41;5052500;28;20017;-48
2023/07/25 04:14:24;;;;;;;9.05;3.58;;;;;;;16.40;80.29;101498.50;5053072;28;20079;-49
2023/07/25 04:16:51;;;;;;;9.57;3.38;;;;;;;16.35;80.29;101504.59;5053334;28;20064;-47
2023/07/25 04:19:17;;;;;;;10.35;3.45;;;;;;;16.47;79.75;101510.03;5042954;28;20474;-46
2023/07/25 04:21:43;;;;;;;8.05;3.05;;;;;;;16.39;79.89;101508.47;5053172;28;20467;-49
2023/07/25 04:24:09;;;;;;;8.13;3.20;;;;;;;16.38;80.19;101509.53;5052445;28;20037;-46
2023/07/25 04:26:36;;;;;;;6.53;3.00;;;;;;;16.47;79.87;101515.44;5052967;28;20028;-47
2023/07/25 04:29:02;;;;;;;9.50;3.20;;;;;;;16.48;79.93;101528.72;5052648;28;20116;-45
2023/07/25 04:31:28;;;;;;;8.85;3.00;;;;;;;16.53;80.14;101519.91;5052227;28;20042;-49
2023/07/25 04:33:54;;;;;;;7.25;3.38;;;;;;;16.42;80.71;101521.53;5051393;28;20025;-48
2023/07/25 04:36:21;;;;;;;5.53;2.85;;;;;;;16.49;80.53;101524.13;5052363;28;20442;-48
2023/07/25 04:38:47;;;;;;;8.10;3.00;;;;;;;16.41;80.82;101524.47;5052500;28;20469;-49
2023/07/25 04:41:13;;;;;;;8.77;3.30;;;;;;;16.53;80.30;101523.44;5050565;28;20421;-47
2023/07/25 04:43:39;;;;;;;13.57;3.75;;;;;;;16.37;81.05;101522.19;5043570;28;20033;-46
2023/07/25 04:46:05;;;;;;;7.50;3.55;;;;;;;16.35;82.04;101523.50;5032093;28;20360;-47
2023/07/25 04:48:32;;;;;;;7.78;3.33;;;;;;;16.41;81.57;101522.56;5043996;28;20040;-50
2023/07/25 04:50:58;;;;;;;8.52;3.38;;;;;;;16.33;82.11;101536.41;5052063;28;20071;-47
2023/07/25 04:53:24;;;;;;;7.85;3.15;;;;;;;16.33;82.24;101533.72;5051478;28;20025;-48
2023/07/25 04:55:50;;;;;;;7.25;3.50;;;;;;;16.17;83.31;101531.63;5051929;28;20051;-50
2023/07/25 04:58:17;;;;;;;8.48;3.60;;;;;;;16.16;83.45;101532.66;5051844;28;20051;-46
2023/07/25 05:00:43;;;;;;;7.68;3.78;;;;;;;16.26;83.23;101531.06;5039536;28;20431;-49
2023/07/25 05:03:09;;;;;;;8.25;3.53;;;;;;;16.18;83.78;101541.38;5031822;28;20499;-48
2023/07/25 05:05:36;;;;;;;7.15;3.28;;;;;;;16.18;83.65;101544.91;5031922;28;20532;-47
2023/07/25 05:08:02;;;;;;;9.20;3.47;;;;;;;16.24;83.48;101544.00;5031966;28;20041;-48
2023/07/25 05:10:28;;;;;;;9.73;3.70;;;;;;;16.19;83.56;101551.94;5034472;28;20418;-48
2023/07/25 05:12:54;;;;;;;6.60;3.35;;;;;;;16.18;83.24;101549.47;5051524;28;20057;-49
2023/07/25 05:15:21;;;;;;;8.25;3.22;;;;;;;16.10;83.69;101555.97;5051610;28;20070;-47
2023/07/25 05:17:48;;;;;;;7.85;3.72;;;;;;;16.08;84.19;101555.41;5051728;28;20055;-48
2023/07/25 05:20:14;;;;;;;8.30;3.28;;;;;;;16.06;84.28;101558.34;5051463;28;20028;-47
2023/07/25 05:22:40;;;;;;;5.80;3.33;;;;;;;16.13;84.11;101557.44;5051413;28;20017;-45
2023/07/25 05:25:07;;;;;;;6.50;3.10;;;;;;;16.12;83.90;101555.78;5050919;28;20078;-46
2023/07/25 05:27:33;;;;;;;8.55;3.45;;;;;;;16.14;84.08;101561.78;5046710;28;20083;-47
2023/07/25 05:30:00;;;;;;;8.57;3.58;;;;;;;16.16;84.59;101554.25;5051368;28;20029;-46
2023/07/25 05:32:26;;;;;;;9.18;3.53;;;;;;;16.13;84.71;101554.72;5047267;28;20065;-49
2023/07/25 05:34:52;;;;;;;11.50;3.95;;;;;;;16.01;85.82;101563.56;5051369;28;20475;-46
2023/07/25 05:37:19;;;;;;;12.50;3.97;;;;;;;16.05;85.61;101553.97;5038427;28;20069;-49
2023/07/25 05:39:45;;;;;;;6.60;3.80;;;;;;;16.14;84.82;101551.78;5051389;28;20059;-48
2023/07/25 05:42:11;;;;;;;7.53;3.72;;;;;;;16.16;84.68;101548.84;5049932;28;20472;-46
2023/07/25 05:44:38;;;;;;;7.28;3.58;;;;;;;16.03;84.83;101549.84;5051286;28;20036;-45
2023/07/25 05:47:05;;;;;;;11.10;4.13;;;;;;;15.99;84.84;101543.22;5055629;28;20036;-48
2023/07/25 05:49:31;;;;;;;10.27;4.20;;;;;;;15.92;84.65;101546.00;5055315;28;20041;-45
2023/07/25 05:51:57;;;;;;;11.68;4.15;;;;;;;15.83;84.70;101537.41;5055290;28;20024;-50
2023/07/25 05:54:24;;;;;;;7.90;3.65;;;;;;;15.92;83.93;101543.31;5053445;28;20078;-49
2023/07/25 05:56:50;;;;;;;6.20;3.47;;;;;;;15.86;84.48;101541.50;5055360;28;20479;-46
2023/07/25 05:59:16;;;;;;;8.68;3.25;;;;;;;15.80;84.52;101548.63;5055116;28;20078;-48
2023/07/25 06:01:42;;;;;;;7.50;3.42;;;;;;;15.72;84.50;101546.22;5054848;28;20032;-46
2023/07/25 06:04:09;;;;;;;6.13;2.97;;;;;;;15.84;84.23;101544.44;5055092;28;20493;-48
2023/07/25 06:06:36;;;;;;;8.52;3.85;;;;;;;15.91;84.14;101547.06;5054961;28;20475;-45
2023/07/25 06:09:02;;;;;;;11.13;3.20;;;;;;;16.03;83.87;101547.97;5054933;28;20021;-46
2023/07/25 06:11:28;;;;;;;12.77;3.83;;;;;;;15.96;83.96;101546.41;5052755;28;20024;-48
2023/07/25 06:13:54;;;;;;;6.25;3.60;;;;;;;15.87;84.65;101542.34;5054818;28;20029;-46
2023/07/25 06:16:21;;;;;;;8.52;4.03;;;;;;;15.92;85.48;101553.28;5054494;28;20395;-45
2023/07/25 06:18:47;;;;;;;10.95;4.28;;;;;;;15.94;85.70;101546.63;5054756;28;20021;-47
2023/07/25 06:21:13;;;;;;;10.35;3.45;;;;;;;15.86;85.92;101555.00;5054777;28;20021;-46
2023/07/25 06:23:39;;;;;;;8.38;3.50;;;;;;;15.86;86.34;101551.47;5054463;28;20053;-49
2023/07/25 06:26:06;;;;;;;12.43;3.97;;;;;;;15.83;85.99;101553.59;5054587;28;20035;-46
2023/07/25 06:28:32;;;;;;;14.18;4.35;;;;;;;15.77;86.07;101553.66;5054452;28;20025;-48
2023/07/25 06:30:58;;;;;;;9.45;4.07;;;;;;;15.72;86.57;101550.81;5054422;28;20025;-48
2023/07/25 06:33:25;;;;;;;6.95;3.80;;;;;;;15.70;86.59;101544.78;5054306;28;20032;-47
2023/07/25 06:35:51;;;;;;;8.70;3.65;;;;;;;15.62;86.80;101539.66;5053898;28;20025;-48
2023/07/25 06:38:17;;;;;;;9.98;3.47;;;;;;;15.64;86.81;101542.97;5034460;28;20525;-47
2023/07/25 06:40:43;;;;;;;9.05;3.80;;;;;;;15.74;85.74;101540.59;5049294;28;20403;-47
2023/07/25 06:43:10;;;;;;;9.13;3.53;;;;;;;15.76;85.69;101535.78;5053242;28;20104;-47
2023/07/25 06:45:36;;;;;;;11.35;3.10;;;;;;;15.63;86.20;101536.75;5054381;28;20690;-45
2023/07/25 06:48:02;;;;;;;8.45;3.28;;;;;;;15.71;85.88;101543.72;5054451;28;20029;-45
2023/07/25 06:50:29;;;;;;;10.23;3.13;;;;;;;15.86;85.21;101538.00;5054397;28;20033;-48
2023/07/25 06:52:55;;;;;;;9.73;3.97;;;;;;;15.61;86.56;101543.41;5054083;28;20029;-47
2023/07/25 06:55:22;;;;;;;13.80;3.85;;;;;;;15.71;85.79;101541.88;5054104;28;20025;-47
2023/07/25 06:57:48;;;;;;;6.78;3.15;;;;;;;15.48;87.71;101539.75;5053125;28;20036;-47
2023/07/25 07:00:15;;;;;;;11.25;4.00;;;;;;;15.51;87.53;101541.22;5053931;28;20032;-48
2023/07/25 07:02:41;;;;;;;8.52;4.05;;;;;;;15.50;87.73;101542.25;5053651;28;20467;-45
2023/07/25 07:05:08;;;;;;;7.38;3.80;;;;;;;15.59;87.21;101555.22;5053972;28;20564;-44
2023/07/25 07:07:34;;;;;;;9.00;4.47;;;;;;;15.36;88.73;101557.72;5053882;28;20058;-45
2023/07/25 07:10:00;;;;;;;6.90;4.03;;;;;;;15.45;88.21;101561.81;5053695;28;20033;-45
2023/07/25 07:12:26;;;;;;;5.18;3.35;;;;;;;15.62;87.06;101562.06;5053339;28;20029;-47
2023/07/25 07:14:53;;;;;;;12.48;3.95;;;;;;;15.46;87.97;101557.22;5053597;28;20029;-44
2023/07/25 07:17:19;;;;;;;9.13;3.40;;;;;;;15.45;88.14;101560.97;5053575;28;20060;-45
2023/07/25 07:19:45;;;;;;;6.05;3.22;;;;;;;15.53;87.81;101555.28;5053860;28;20032;-46
2023/07/25 07:22:11;;;;;;;6.80;3.00;;;;;;;15.48;87.76;101555.13;5051022;28;20135;-44
2023/07/25 07:24:38;;;;;;;7.75;3.55;;;;;;;15.64;87.20;101557.28;5053425;28;20071;-45
2023/07/25 07:27:04;;;;;;;5.40;3.00;;;;;;;15.63;87.35;101554.84;5053614;28;20055;-45
2023/07/25 07:29:30;;;;;;;12.93;4.10;;;;;;;15.43;88.28;101558.47;5053128;28;20479;-44
2023/07/25 07:31:59;;;;;;;7.85;3.40;;;;;;;15.44;88.67;101549.38;5053260;28;20029;-48
2023/07/25 07:34:25;;;;;;;7.95;3.70;;;;;;;15.36;88.79;101549.63;5051916;28;20033;-44
2023/07/25 07:36:51;;;;;;;14.27;3.60;;;;;;;15.56;87.58;101546.78;5040770;28;20723;-44
2023/07/25 07:39:18;;;;;;;11.48;3.85;;;;;;;15.56;87.77;101547.59;5033295;28;20538;-44
2023/07/25 07:41:44;;;;;;;8.20;3.90;;;;;;;15.31;88.91;101549.47;5033169;28;20095;-45
2023/07/25 07:44:10;;;;;;;8.07;3.50;;;;;;;15.25;89.24;101540.38;5033355;28;20033;-48
2023/07/25 07:46:37;;;;;;;7.20;3.40;;;;;;;15.27;89.46;101549.09;5033093;28;20132;-45
2023/07/25 07:49:03;;;;;;;9.93;4.43;;;;;;;15.17;89.71;101550.63;5045389;28;20406;-45
2023/07/25 07:51:29;;;;;;;8.45;4.28;;;;;;;15.08;90.75;101549.22;5052916;28;20024;-46
2023/07/25 07:53:56;;;;;;;10.13;4.28;;;;;;;15.09;90.60;101556.28;5053078;28;20029;-45
2023/07/25 07:56:22;;;;;;;9.38;4.43;;;;;;;15.27;89.76;101556.38;5053010;28;20037;-45
2023/07/25 07:58:48;;;;;;;8.75;3.70;;;;;;;15.28;89.29;101549.91;5052947;28;20025;-45
2023/07/25 08:01:15;;;;;;;10.30;3.80;;;;;;;15.37;88.91;101548.56;5052810;28;20033;-45
2023/07/25 08:03:41;;;;;;;8.30;3.65;;;;;;;15.43;88.80;101545.00;5052672;28;20109;-44
2023/07/25 08:06:07;;;;;;;10.35;4.63;;;;;;;15.36;88.96;101544.22;5052677;28;20036;-45
2023/07/25 08:08:34;;;;;;;8.85;3.90;;;;;;;15.36;88.84;101546.09;5052557;28;20029;-45
2023/07/25 08:11:00;;;;;;;10.80;4.60;;;;;;;15.17;90.04;101542.53;5052601;28;20052;-45
2023/07/25 08:13:26;;;;;;;8.02;3.70;;;;;;;15.30;89.22;101532.47;5052317;28;20048;-44
2023/07/25 08:15:52;;;;;;;11.57;3.88;;;;;;;15.24;89.23;101543.31;5050342;28;20016;-44
2023/07/25 08:18:19;;;;;;;9.63;3.92;;;;;;;15.27;89.08;101530.22;5052328;28;20033;-45
2023/07/25 08:20:46;;;;;;;10.15;4.43;;;;;;;15.16;89.79;101530.94;5052511;28;20029;-45
2023/07/25 08:23:13;;;;;;;8.80;4.35;;;;;;;15.21;89.43;101519.47;5051694;28;20029;-44
2023/07/25 08:25:39;;;;;;;10.38;4.38;;;;;;;15.09;90.34;101535.53;5052532;28;20075;-48
2023/07/25 08:28:06;;;;;;;5.85;3.33;;;;;;;15.22;89.79;101537.31;5052481;28;20028;-46
2023/07/25 08:30:32;;;;;;;11.90;4.32;;;;;;;15.17;89.89;101535.28;5051670;28;20053;-45
2023/07/25 08:33:00;;;;;;;7.97;4.20;;;;;;;15.24;89.04;101527.94;5051956;28;20483;-46
2023/07/25 08:35:26;;;;;;;7.68;4.05;;;;;;;15.20;89.28;101525.91;5052394;28;20031;-48
2023/07/25 08:37:52;;;;;;;9.40;4.00;;;;;;;15.19;89.02;101535.88;5034449;28;20042;-45
2023/07/25 08:40:20;;;;;;;13.10;4.20;;;;;;;15.16;89.43;101535.50;5032399;28;20025;-45
2023/07/25 08:42:49;;;;;;;6.82;3.72;;;;;;;15.06;89.58;101541.38;5031862;28;20033;-45
2023/07/25 08:45:17;;;;;;;11.88;4.28;;;;;;;15.10;89.30;101544.44;5033284;28;20033;-47
2023/07/25 08:47:46;;;;;;;8.10;3.92;;;;;;;15.00;89.63;101543.06;5051855;28;20506;-45
2023/07/25 08:50:16;;;;;;;9.55;3.90;;;;;;;14.98;89.60;101539.75;5050939;28;20039;-45
2023/07/25 08:52:50;;;;;;;8.48;4.65;;;;;;;15.09;89.31;101540.91;5051702;28;20139;-45
2023/07/25 08:55:17;;;;;;;10.10;4.38;;;;;;;15.07;89.19;101542.19;5052036;28;20048;-45
2023/07/25 08:57:44;;;;;;;11.32;5.05;;;;;;;14.95;90.17;101539.38;5051862;28;20063;-46
2023/07/25 09:00:13;;;;;;;13.40;5.35;;;;;;;14.84;91.42;101542.78;5049914;28;20046;-47
2023/07/25 09:02:39;;;;;;;11.77;4.82;;;;;;;14.87;91.73;101545.00;5051577;28;20048;-45
2023/07/25 09:05:06;;;;;;;16.65;5.80;;;;;;;14.84;92.23;101548.16;5051873;28;20029;-44
2023/07/25 09:07:33;;;;;;;11.18;4.55;;;;;;;14.78;92.72;101556.06;5051657;28;20021;-46
2023/07/25 09:09:59;;;;;;;10.90;5.25;;;;;;;14.82;93.06;101555.63;5051693;28;20037;-46
2023/07/25 09:12:25;;;;;;;13.23;5.30;;;;;;;14.88;92.64;101550.22;5051170;28;20455;-46
2023/07/25 09:14:52;;;;;;;13.90;5.47;;;;;;;14.88;92.61;101550.22;5051140;28;20108;-44
2023/07/25 09:17:20;;;;;;;18.67;5.55;;;;;;;14.98;92.41;101547.00;5050143;28;20503;-45
2023/07/25 09:19:47;;;;;;;8.25;3.83;;;;;;;14.99;92.15;101544.13;5050929;28;20063;-44
2023/07/25 09:22:31;;;;;;;13.25;4.65;;;;;;;14.99;92.44;101544.13;5051172;28;20024;-44
2023/07/25 09:24:59;;;;;;;9.95;4.70;;;;;;;14.92;92.64;101540.63;5051775;28;20032;-44
2023/07/25 09:27:28;;;;;;;13.30;4.82;;;;;;;14.93;92.83;101542.25;5050754;28;20029;-44
2023/07/25 09:29:54;;;;;;;10.95;4.57;;;;;;;14.93;93.29;101541.44;5051456;28;20079;-44
2023/07/25 09:32:24;;;;;;;12.13;4.95;;;;;;;14.79;94.60;101530.75;5049259;28;20029;-45
2023/07/25 09:34:55;;;;;;;10.82;4.80;;;;;;;14.79;95.06;101536.16;5051530;28;20067;-44
2023/07/25 09:37:22;;;;;;;12.15;4.47;;;;;;;14.86;94.55;101536.09;5038143;28;20053;-45
2023/07/25 09:39:48;;;;;;;10.00;4.72;;;;;;;14.82;94.68;101523.28;5031396;28;20075;-45
2023/07/25 09:42:15;;;;;;;14.18;5.15;;;;;;;14.71;95.76;101527.47;5031213;28;20029;-46
2023/07/25 09:44:48;;;;;;;12.60;4.90;;;;;;;14.87;94.38;101518.88;5031181;28;20104;-48
2023/07/25 09:47:24;;;;;;;11.68;5.25;;;;;;;14.82;94.30;101523.28;5049379;28;20033;-45
2023/07/25 09:49:53;;;;;;;10.70;4.18;;;;;;;14.84;94.42;101519.34;5051258;28;20060;-46
2023/07/25 09:52:19;;;;;;;13.55;5.35;;;;;;;14.68;95.66;101519.84;5051013;28;20029;-46
2023/07/25 09:54:46;;;;;;;9.55;4.63;;;;;;;14.84;94.97;101516.63;5051047;28;20029;-48
2023/07/25 09:57:12;;;;;;;11.90;5.32;;;;;;;14.83;94.83;101525.78;5051179;28;20108;-47
2023/07/25 09:59:39;;;;;;;15.45;5.15;;;;;;;14.66;95.11;101516.56;5051157;28;20021;-46
2023/07/25 10:02:06;;;;;;;12.68;5.03;;;;;;;14.71;95.29;101524.78;5048925;28;20040;-44
2023/07/25 10:04:36;;;;;;;17.98;6.25;;;;;;;14.50;96.50;101516.00;5050971;28;20108;-48
2023/07/25 10:07:03;;;;;;;15.32;5.95;;;;;;;14.68;95.36;101509.91;5051111;28;20094;-46
2023/07/25 10:09:30;;;;;;;12.68;4.78;;;;;;;14.69;95.01;101500.75;5051036;28;20032;-45
2023/07/25 10:11:59;;;;;;;10.57;5.10;;;;;;;14.69;95.07;101516.09;5050809;28;20061;-45
2023/07/25 10:14:25;;;;;;;12.70;4.63;;;;;;;14.66;95.52;101511.16;5049644;28;20029;-48
2023/07/25 10:16:52;;;;;;;14.63;5.30;;;;;;;14.61;96.05;101506.44;5050933;28;20391;-46
2023/07/25 10:19:19;;;;;;;10.00;5.28;;;;;;;14.60;95.87;101499.34;5050880;28;20044;-47
2023/07/25 10:21:51;;;;;;;11.05;5.18;;;;;;;14.61;95.86;101505.59;5050669;28;20095;-48
2023/07/25 10:24:21;;;;;;;9.55;4.70;;;;;;;14.69;95.35;101508.03;5050739;28;20025;-45
2023/07/25 10:26:58;;;;;;;9.98;5.13;;;;;;;14.80;94.51;101510.03;5050926;28;20479;-47
2023/07/25 10:30:01;;;;;;;13.00;5.10;;;;;;;14.68;95.56;101511.75;5049677;28;20435;-47
2023/07/25 10:32:44;;;;;;;10.90;4.70;;;;;;;14.74;95.32;101511.72;4990476;28;20404;-47
2023/07/25 10:35:11;;;;;;;12.80;5.38;;;;;;;14.70;95.59;101509.66;5034412;28;20503;-47
2023/07/25 10:37:45;;;;;;;8.55;4.55;;;;;;;14.64;96.58;101515.94;5034036;28;20084;-46
2023/07/25 10:40:16;;;;;;;12.18;4.93;;;;;;;14.41;98.49;101514.56;5034500;28;20614;-46
2023/07/25 10:42:44;;;;;;;14.20;6.55;;;;;;;14.38;97.68;101512.31;5033851;28;20025;-46
2023/07/25 10:45:21;;;;;;;11.05;5.25;;;;;;;14.50;96.02;101510.63;5052001;28;20025;-47
2023/07/25 10:47:49;;;;;;;9.65;4.82;;;;;;;14.67;95.26;101510.13;5054111;28;20056;-48
2023/07/25 10:50:24;;;;;;;11.63;5.10;;;;;;;14.74;94.75;101518.97;5052535;28;20037;-46
2023/07/25 10:52:50;;;;;;;;;;;;;;;14.62;95.17;101516.16;5054172;28;20427;-45
2023/07/25 10:55:16;;;;;;;11.75;5.28;;;;;;;14.62;95.27;101505.38;5054209;28;19938;-46
2023/07/25 10:58:09;;;;;;;14.00;4.95;;;;;;;14.46;96.18;101501.28;5053840;28;20025;-46
2023/07/25 11:00:37;;;;;;;12.43;5.38;;;;;;;14.58;95.32;101506.00;5046653;28;20029;-45
2023/07/25 11:03:32;;;;;;;13.65;5.55;;;;;;;14.50;96.76;101509.81;5053470;28;20191;-47
2023/07/25 11:06:07;;;;;;;10.85;4.53;;;;;;;14.67;95.54;101507.44;5053867;28;20029;-48
2023/07/25 11:08:41;;;;;;;9.90;5.43;;;;;;;14.48;96.67;101493.00;5053711;28;20039;-46
2023/07/25 11:11:10;;;;;;;13.77;5.32;;;;;;;14.57;96.74;101501.69;5053942;28;20112;-46
2023/07/25 11:13:39;;;;;;;12.60;5.28;;;;;;;14.56;96.64;101494.66;5051603;28;20024;-45
2023/07/25 11:16:10;;;;;;;11.05;4.63;;;;;;;14.53;97.52;101503.97;5054076;28;20108;-47
2023/07/25 11:18:47;;;;;;;8.73;4.35;;;;;;;14.47;97.72;101497.56;5053680;28;20017;-45
2023/07/25 11:21:14;;;;;;;10.23;5.63;;;;;;;14.58;96.65;101497.94;5053426;28;20048;-49